Time;durP1;ratioP1;P1;durP2;ratioP2;P2;SDS_P1;SDS_P2;PMS_P1;PMS_P2;Temp;Humidity;BMP_temperature;BMP_pressure;BME280_temperature;BME280_humidity;BME280_pressure;Samples;Min_cycle;Max_cycle;Signal;HPM_P1;HPM_P2
2021/05/02 00:02:15;;;;;;;2.90;2.03;;;;;;;5.66;93.32;96265.50;5057482;28;20072;-62
2021/05/02 00:04:41;;;;;;;1.67;1.40;;;;;;;5.64;92.49;96267.78;5062254;28;20045;-62
2021/05/02 00:07:07;;;;;;;3.58;1.75;;;;;;;5.62;93.14;96275.47;5056042;28;20454;-62
2021/05/02 00:09:32;;;;;;;5.07;3.08;;;;;;;5.57;92.67;96278.44;5061116;28;20036;-61
2021/05/02 00:11:59;;;;;;;4.88;2.50;;;;;;;5.57;93.56;96283.88;5063334;28;20501;-61
2021/05/02 00:14:24;;;;;;;3.10;1.60;;;;;;;5.40;94.01;96274.84;5055862;28;20048;-62
2021/05/02 00:16:51;;;;;;;3.20;1.60;;;;;;;5.49;93.84;96280.97;5062498;28;20051;-63
2021/05/02 00:19:19;;;;;;;2.00;1.60;;;;;;;5.39;94.27;96281.44;5057271;28;20083;-62
2021/05/02 00:21:46;;;;;;;1.77;1.40;;;;;;;5.37;94.21;96280.97;5063251;28;20090;-62
2021/05/02 00:24:12;;;;;;;2.08;1.30;;;;;;;5.40;94.03;96284.94;5055946;28;20047;-62
2021/05/02 00:26:38;;;;;;;2.60;1.67;;;;;;;5.38;93.93;96289.91;5061356;28;20047;-64
2021/05/02 00:29:03;;;;;;;2.22;1.42;;;;;;;5.34;94.13;96287.09;5057545;28;20040;-63
2021/05/02 00:31:29;;;;;;;2.92;1.40;;;;;;;5.49;93.07;96288.28;5060191;28;20047;-62
2021/05/02 00:33:54;;;;;;;1.98;1.48;;;;;;;5.64;92.42;96284.88;5061869;28;20123;-63
2021/05/02 00:36:21;;;;;;;1.63;1.25;;;;;;;5.69;91.91;96286.53;5056101;28;20036;-64
2021/05/02 00:38:46;;;;;;;1.02;0.90;;;;;;;5.71;91.53;96293.22;5060910;28;20153;-61
2021/05/02 00:41:27;;;;;;;1.48;1.25;;;;;;;5.59;91.38;96293.25;5056018;28;20142;-62
2021/05/02 00:44:02;;;;;;;1.20;0.90;;;;;;;5.48;91.44;96298.38;5058877;28;20625;-61
2021/05/02 00:46:35;;;;;;;3.70;1.25;;;;;;;5.31;92.20;96307.59;5055108;28;20059;-62
2021/05/02 00:49:17;;;;;;;3.05;1.52;;;;;;;5.23;93.28;96305.78;5042235;28;20037;-62
2021/05/02 00:51:46;;;;;;;1.40;1.05;;;;;;;5.21;93.69;96309.97;5041330;28;20051;-63
2021/05/02 00:54:16;;;;;;;1.77;1.30;;;;;;;5.11;93.75;96312.03;5036528;28;20045;-62
2021/05/02 00:57:01;;;;;;;1.95;1.40;;;;;;;5.29;94.60;96314.47;5041586;28;20399;-64
2021/05/02 00:59:38;;;;;;;9.13;4.10;;;;;;;5.28;93.97;96310.97;5037671;28;20476;-63
2021/05/02 01:02:04;;;;;;;3.90;2.10;;;;;;;5.28;93.44;96323.78;5051250;28;20037;-63
2021/05/02 01:04:31;;;;;;;1.35;1.15;;;;;;;5.31;94.56;96323.06;5059588;28;20055;-62
2021/05/02 01:07:02;;;;;;;1.58;1.38;;;;;;;5.25;94.29;96321.72;5060850;28;20375;-63
2021/05/02 01:09:30;;;;;;;1.35;1.15;;;;;;;5.29;94.69;96328.06;5056707;28;20037;-61
2021/05/02 01:11:58;;;;;;;1.33;1.00;;;;;;;5.44;94.11;96326.56;5042025;28;20072;-64
2021/05/02 01:14:25;;;;;;;1.30;1.17;;;;;;;5.25;94.49;96321.72;5053844;28;20094;-62
2021/05/02 01:16:55;;;;;;;2.22;1.40;;;;;;;5.16;94.84;96321.84;5042710;28;20052;-61
2021/05/02 01:19:21;;;;;;;1.40;1.30;;;;;;;5.19;94.87;96321.19;5055471;28;20148;-63
2021/05/02 01:21:49;;;;;;;1.45;1.10;;;;;;;5.15;94.97;96323.00;5060710;28;20563;-60
2021/05/02 01:24:16;;;;;;;3.00;1.27;;;;;;;5.19;94.38;96323.09;5055294;28;20049;-64
2021/05/02 01:26:44;;;;;;;1.65;1.20;;;;;;;5.05;95.71;96324.22;5060030;28;20051;-63
2021/05/02 01:29:10;;;;;;;2.47;1.60;;;;;;;4.97;95.77;96325.94;5053185;28;20042;-64
2021/05/02 01:31:36;;;;;;;2.33;1.58;;;;;;;4.94;95.94;96325.81;5060475;28;20131;-63
2021/05/02 01:34:02;;;;;;;2.10;1.45;;;;;;;4.93;96.70;96332.38;5058586;28;20041;-62
2021/05/02 01:36:27;;;;;;;2.95;1.63;;;;;;;4.91;96.71;96323.78;5057663;28;20533;-60
2021/05/02 01:38:55;;;;;;;2.10;1.55;;;;;;;4.91;97.30;96332.69;5067706;28;20048;-61
2021/05/02 01:41:22;;;;;;;2.22;1.50;;;;;;;5.05;96.33;96334.31;5055828;28;20147;-62
2021/05/02 01:43:48;;;;;;;1.95;1.60;;;;;;;4.90;96.12;96343.91;5068146;28;20044;-63
2021/05/02 01:46:29;;;;;;;1.80;1.40;;;;;;;4.95;96.39;96339.06;5064583;28;20046;-62
2021/05/02 01:48:55;;;;;;;3.45;1.50;;;;;;;5.04;96.52;96346.28;5072274;28;20072;-62
2021/05/02 01:51:21;;;;;;;2.13;1.50;;;;;;;5.02;95.86;96343.13;5068268;28;20048;-61
2021/05/02 01:53:47;;;;;;;2.00;1.20;;;;;;;4.97;95.69;96353.06;5071610;28;20051;-63
2021/05/02 01:56:14;;;;;;;1.73;1.45;;;;;;;4.94;95.77;96353.75;5068988;28;20032;-63
2021/05/02 01:58:43;;;;;;;1.30;1.20;;;;;;;5.14;95.17;96359.41;5063347;28;20040;-60
2021/05/02 02:01:15;;;;;;;1.65;1.35;;;;;;;5.20;95.44;96363.47;5058845;28;20143;-62
2021/05/02 02:03:44;;;;;;;2.45;1.50;;;;;;;5.03;94.08;96361.00;5071891;28;20561;-62
2021/05/02 02:06:12;;;;;;;1.83;1.38;;;;;;;5.04;94.76;96366.09;5072728;28;20090;-63
2021/05/02 02:08:38;;;;;;;1.23;1.05;;;;;;;5.07;93.85;96372.75;5070413;28;20066;-63
2021/05/02 02:11:04;;;;;;;4.65;1.33;;;;;;;4.98;94.30;96378.28;5063295;28;20032;-64
2021/05/02 02:13:29;;;;;;;1.40;1.10;;;;;;;4.95;94.47;96370.81;5080002;28;20032;-61
2021/05/02 02:15:55;;;;;;;0.80;0.80;;;;;;;4.90;93.92;96379.97;5061933;28;20037;-60
2021/05/02 02:18:21;;;;;;;1.23;1.10;;;;;;;4.79;94.57;96376.91;5058040;28;20051;-63
2021/05/02 02:20:53;;;;;;;1.15;1.02;;;;;;;4.86;95.75;96383.69;5064822;28;20041;-62
2021/05/02 02:23:29;;;;;;;1.60;1.38;;;;;;;4.94;94.32;96383.59;5059187;28;20041;-62
2021/05/02 02:26:00;;;;;;;1.55;1.25;;;;;;;4.77;94.67;96381.06;5063547;28;20040;-63
2021/05/02 02:28:26;;;;;;;1.98;1.42;;;;;;;4.75;95.07;96391.47;5061702;28;20157;-64
2021/05/02 02:30:58;;;;;;;2.47;1.17;;;;;;;4.71;94.80;96385.91;5063313;28;20041;-63
2021/05/02 02:33:29;;;;;;;1.35;1.23;;;;;;;4.70;95.49;96386.25;5057867;28;20396;-63
2021/05/02 02:35:55;;;;;;;2.05;1.40;;;;;;;4.69;95.34;96390.91;5063963;28;20048;-62
2021/05/02 02:38:26;;;;;;;2.05;1.50;;;;;;;4.57;95.90;96388.16;5057730;28;20032;-64
2021/05/02 02:40:56;;;;;;;2.10;1.50;;;;;;;4.62;96.09;96400.72;5064012;28;20422;-64
2021/05/02 02:43:24;;;;;;;2.45;1.60;;;;;;;4.49;96.65;96394.47;5059246;28;20073;-62
2021/05/02 02:45:53;;;;;;;2.17;1.73;;;;;;;4.45;96.39;96398.97;5063036;28;20056;-62
2021/05/02 02:48:25;;;;;;;2.50;2.00;;;;;;;4.37;96.47;96403.34;5058487;28;20428;-63
2021/05/02 02:50:56;;;;;;;2.75;1.98;;;;;;;4.39;96.64;96414.66;5045848;28;20049;-61
2021/05/02 02:53:22;;;;;;;3.33;1.88;;;;;;;4.46;96.55;96414.13;5058033;28;20040;-62
2021/05/02 02:55:57;;;;;;;2.30;1.83;;;;;;;4.63;96.43;96405.81;5067262;28;20048;-63
2021/05/02 02:58:27;;;;;;;2.30;1.75;;;;;;;4.66;96.06;96415.97;5059976;28;20052;-62
2021/05/02 03:00:53;;;;;;;3.17;2.25;;;;;;;4.66;95.66;96413.25;5062865;28;20055;-61
2021/05/02 03:03:21;;;;;;;2.60;2.05;;;;;;;4.66;96.04;96412.47;5050250;28;20040;-63
2021/05/02 03:05:48;;;;;;;2.60;2.03;;;;;;;4.51;96.18;96424.75;5053902;28;20048;-61
2021/05/02 03:08:13;;;;;;;3.40;2.58;;;;;;;4.50;96.01;96434.81;5057489;28;20040;-62
2021/05/02 03:10:41;;;;;;;3.35;2.47;;;;;;;4.44;96.79;96435.34;5063439;28;20032;-63
2021/05/02 03:13:10;;;;;;;2.60;2.20;;;;;;;4.53;97.32;96434.13;5061190;28;20043;-64
2021/05/02 03:15:36;;;;;;;3.17;2.50;;;;;;;4.53;97.20;96422.50;5066178;28;20052;-64
2021/05/02 03:18:25;;;;;;;3.20;2.33;;;;;;;4.55;97.25;96423.75;5063011;28;20430;-63
2021/05/02 03:21:00;;;;;;;5.50;3.13;;;;;;;4.50;97.07;96434.00;5055627;28;20048;-64
2021/05/02 03:23:37;;;;;;;4.13;3.10;;;;;;;4.43;97.16;96439.19;5055771;28;20665;-62
2021/05/02 03:26:05;;;;;;;3.58;2.90;;;;;;;4.48;97.05;96437.03;5058947;28;20040;-63
2021/05/02 03:28:36;;;;;;;3.28;2.58;;;;;;;4.53;97.06;96450.41;5064235;28;20044;-61
2021/05/02 03:31:05;;;;;;;3.70;2.72;;;;;;;4.65;97.17;96446.19;5062482;28;20044;-63
2021/05/02 03:33:34;;;;;;;3.10;2.35;;;;;;;4.48;96.99;96447.09;5076312;28;20049;-65
2021/05/02 03:36:05;;;;;;;2.95;2.20;;;;;;;4.44;96.87;96451.63;5064294;28;20048;-62
2021/05/02 03:38:41;;;;;;;2.35;1.90;;;;;;;4.35;97.07;96451.69;5063262;28;20044;-64
2021/05/02 03:41:06;;;;;;;3.05;1.88;;;;;;;4.44;97.22;96468.69;5038526;28;20062;-65
2021/05/02 03:43:34;;;;;;;2.65;2.17;;;;;;;4.36;97.14;96477.69;5061807;28;20044;-63
2021/05/02 03:45:59;;;;;;;3.20;2.20;;;;;;;4.41;97.54;96472.03;5068363;28;20538;-64
2021/05/02 03:48:25;;;;;;;3.25;2.45;;;;;;;4.29;97.33;96477.44;5056467;28;20163;-62
2021/05/02 03:50:51;;;;;;;3.22;2.47;;;;;;;4.35;98.13;96476.09;5059850;28;20041;-64
2021/05/02 03:53:16;;;;;;;4.38;2.40;;;;;;;4.51;97.06;96479.00;5057807;28;20592;-62
2021/05/02 03:55:43;;;;;;;2.72;2.20;;;;;;;4.31;97.35;96483.31;5061431;28;20040;-62
2021/05/02 03:58:14;;;;;;;2.85;2.20;;;;;;;4.34;97.48;96486.16;5057576;28;20043;-64
2021/05/02 04:00:41;;;;;;;2.40;2.10;;;;;;;4.40;97.48;96497.59;5063314;28;20040;-62
2021/05/02 04:03:07;;;;;;;2.05;1.63;;;;;;;4.58;96.83;96499.03;5054544;28;20036;-61
2021/05/02 04:05:33;;;;;;;2.28;1.60;;;;;;;4.55;96.63;96499.69;5062941;28;20128;-62
2021/05/02 04:07:59;;;;;;;2.38;1.63;;;;;;;4.43;96.48;96505.06;5064115;28;20178;-65
2021/05/02 04:10:24;;;;;;;1.45;1.35;;;;;;;4.36;97.00;96505.59;5056259;28;20143;-63
2021/05/02 04:12:50;;;;;;;2.15;1.58;;;;;;;4.28;97.05;96511.88;5070572;28;20047;-62
2021/05/02 04:15:16;;;;;;;1.55;1.30;;;;;;;4.30;97.25;96516.97;5056291;28;20419;-63
2021/05/02 04:17:41;;;;;;;1.63;1.40;;;;;;;4.29;97.69;96515.38;5055247;28;20123;-63
2021/05/02 04:20:07;;;;;;;4.88;2.40;;;;;;;4.25;97.63;96514.44;5057170;28;20048;-61
2021/05/02 04:22:32;;;;;;;2.28;1.42;;;;;;;4.44;97.48;96522.91;5067631;28;20052;-63
2021/05/02 04:24:58;;;;;;;1.65;1.45;;;;;;;4.45;96.85;96524.53;5080670;28;20040;-63
2021/05/02 04:27:23;;;;;;;1.35;1.20;;;;;;;4.44;97.41;96520.22;5074614;28;20068;-62
2021/05/02 04:29:49;;;;;;;1.50;1.25;;;;;;;4.40;97.36;96530.13;5066998;28;20040;-62
2021/05/02 04:32:14;;;;;;;2.03;1.50;;;;;;;4.59;97.31;96527.75;5054955;28;20123;-63
2021/05/02 04:34:40;;;;;;;2.08;1.40;;;;;;;4.59;97.05;96535.88;5061415;28;20052;-63
2021/05/02 04:37:06;;;;;;;2.13;1.60;;;;;;;4.75;96.49;96533.38;5056822;28;20483;-62
2021/05/02 04:39:32;;;;;;;1.85;1.33;;;;;;;4.72;96.12;96547.59;5048440;28;20303;-61
2021/05/02 04:41:58;;;;;;;3.78;1.70;;;;;;;4.78;95.86;96545.47;5062201;28;20494;-62
2021/05/02 04:44:24;;;;;;;1.95;1.60;;;;;;;4.81;96.00;96549.41;5056596;28;20053;-64
2021/05/02 04:46:50;;;;;;;3.78;2.30;;;;;;;4.60;96.38;96552.94;5058639;28;20103;-60
2021/05/02 04:49:16;;;;;;;4.88;2.42;;;;;;;4.63;96.59;96555.00;5055272;28;20036;-61
2021/05/02 04:51:42;;;;;;;3.00;1.98;;;;;;;4.68;97.04;96554.00;5071356;28;20052;-62
2021/05/02 04:54:08;;;;;;;3.80;2.17;;;;;;;4.74;96.95;96568.97;5064205;28;20036;-63
2021/05/02 04:56:38;;;;;;;4.05;2.20;;;;;;;4.89;96.70;96565.63;5062383;28;20132;-62
2021/05/02 04:59:05;;;;;;;3.08;2.20;;;;;;;4.97;96.76;96564.78;5058218;28;20387;-64
2021/05/02 05:01:31;;;;;;;4.15;2.65;;;;;;;5.05;96.10;96573.97;5061597;28;20110;-63
2021/05/02 05:03:57;;;;;;;3.67;2.67;;;;;;;5.13;95.29;96581.25;5062014;28;20059;-62
2021/05/02 05:06:24;;;;;;;4.68;3.00;;;;;;;5.19;94.31;96579.09;5059389;28;20040;-60
2021/05/02 05:08:49;;;;;;;4.82;3.20;;;;;;;5.12;94.28;96582.34;5061136;28;20024;-62
2021/05/02 05:11:15;;;;;;;4.72;3.33;;;;;;;5.03;94.23;96578.94;5063025;28;20482;-63
2021/05/02 05:13:40;;;;;;;5.57;4.13;;;;;;;4.98;95.05;96581.84;5061185;28;20118;-62
2021/05/02 05:16:06;;;;;;;7.80;4.18;;;;;;;5.01;95.21;96592.06;5055720;28;20529;-63
2021/05/02 05:18:32;;;;;;;6.30;4.07;;;;;;;5.16;95.28;96596.06;5060213;28;20047;-61
2021/05/02 05:20:57;;;;;;;7.05;4.10;;;;;;;5.29;94.32;96599.59;5060202;28;20045;-64
2021/05/02 05:23:23;;;;;;;6.32;4.30;;;;;;;5.19;93.84;96603.53;5056617;28;20154;-63
2021/05/02 05:25:49;;;;;;;7.70;4.53;;;;;;;5.11;93.82;96599.78;5061485;28;20044;-64
2021/05/02 05:28:14;;;;;;;8.95;5.10;;;;;;;5.29;93.77;96600.41;5065505;28;20036;-60
2021/05/02 05:30:40;;;;;;;7.85;4.97;;;;;;;5.40;93.56;96608.91;5066757;28;20135;-63
2021/05/02 05:33:08;;;;;;;7.03;4.72;;;;;;;5.56;93.29;96611.78;5055259;28;20033;-64
2021/05/02 05:35:35;;;;;;;9.88;5.07;;;;;;;5.72;92.28;96603.78;5061021;28;20525;-63
2021/05/02 05:38:01;;;;;;;7.03;4.45;;;;;;;5.74;92.32;96606.97;5060296;28;20044;-63
2021/05/02 05:40:27;;;;;;;9.35;5.75;;;;;;;5.64;92.12;96613.63;5055740;28;20041;-61
2021/05/02 05:42:53;;;;;;;11.70;7.53;;;;;;;5.61;92.34;96619.72;5060803;28;20155;-64
2021/05/02 05:45:19;;;;;;;14.82;8.75;;;;;;;5.49;91.87;96623.22;5051994;28;20546;-63
2021/05/02 05:47:50;;;;;;;13.77;8.85;;;;;;;5.54;91.74;96625.72;5060583;28;20376;-62
2021/05/02 05:50:16;;;;;;;12.20;7.82;;;;;;;5.56;92.03;96628.09;5054971;28;20111;-62
2021/05/02 05:52:45;;;;;;;15.80;8.77;;;;;;;5.55;91.59;96629.25;5060205;28;20090;-61
2021/05/02 05:55:14;;;;;;;13.70;9.30;;;;;;;5.57;91.84;96637.06;5057580;28;20052;-64
2021/05/02 05:57:41;;;;;;;16.33;10.35;;;;;;;5.50;92.01;96638.38;5060666;28;20103;-64
2021/05/02 06:00:09;;;;;;;18.20;10.95;;;;;;;5.30;92.55;96640.00;5064999;28;20047;-60
2021/05/02 06:02:35;;;;;;;18.27;11.55;;;;;;;5.38;93.22;96638.34;5069071;28;20048;-64
2021/05/02 06:05:00;;;;;;;20.67;12.75;;;;;;;5.44;92.81;96641.63;5065466;28;20036;-63
2021/05/02 06:07:26;;;;;;;19.10;12.48;;;;;;;5.49;92.73;96646.88;5060365;28;20107;-64
2021/05/02 06:09:52;;;;;;;21.85;13.30;;;;;;;5.38;90.71;96648.41;5061579;28;20075;-64
2021/05/02 06:12:19;;;;;;;19.00;12.82;;;;;;;5.65;88.99;96653.25;5057681;28;20451;-63
2021/05/02 06:14:44;;;;;;;17.88;11.55;;;;;;;5.80;88.87;96651.03;5060959;28;20041;-63
2021/05/02 06:17:10;;;;;;;17.17;11.18;;;;;;;5.92;87.98;96661.91;5055542;28;20036;-64
2021/05/02 06:19:35;;;;;;;17.55;10.73;;;;;;;5.96;87.66;96664.78;5062262;28;20098;-64
2021/05/02 06:22:00;;;;;;;15.60;10.07;;;;;;;5.87;88.03;96667.56;5061422;28;20128;-64
2021/05/02 06:24:26;;;;;;;17.58;11.55;;;;;;;5.97;88.88;96669.09;5059438;28;20546;-64
2021/05/02 06:26:51;;;;;;;20.58;11.35;;;;;;;5.97;88.04;96675.34;5069565;28;20490;-64
2021/05/02 06:29:17;;;;;;;18.48;12.77;;;;;;;5.99;88.40;96675.78;5058487;28;20187;-64
2021/05/02 06:31:43;;;;;;;17.60;11.65;;;;;;;5.92;87.85;96673.63;5067503;28;20131;-64
2021/05/02 06:34:08;;;;;;;17.92;11.73;;;;;;;5.97;88.55;96672.63;5060895;28;20045;-66
2021/05/02 06:36:34;;;;;;;16.27;11.38;;;;;;;6.04;87.98;96685.66;5066038;28;20110;-62
2021/05/02 06:38:59;;;;;;;19.52;12.65;;;;;;;6.03;87.46;96678.63;5062951;28;20111;-64
2021/05/02 06:41:25;;;;;;;18.13;11.52;;;;;;;6.05;87.92;96681.78;5058677;28;20061;-65
2021/05/02 06:43:51;;;;;;;17.23;11.65;;;;;;;6.07;87.54;96687.72;5064490;28;20331;-63
2021/05/02 06:46:28;;;;;;;19.45;12.95;;;;;;;5.99;87.68;96681.22;5048490;28;20047;-62
2021/05/02 06:48:55;;;;;;;15.82;11.50;;;;;;;6.34;86.40;96688.19;5045614;28;20029;-64
2021/05/02 06:51:22;;;;;;;16.55;11.55;;;;;;;6.53;85.34;96688.41;5062832;28;20151;-64
2021/05/02 06:53:47;;;;;;;18.20;12.93;;;;;;;6.69;82.91;96688.53;5061563;28;20119;-64
2021/05/02 06:56:12;;;;;;;16.63;12.18;;;;;;;6.59;82.27;96695.22;5059191;28;20063;-63
2021/05/02 06:58:38;;;;;;;17.02;11.65;;;;;;;6.57;83.13;96700.22;5045178;28;20048;-63
2021/05/02 07:01:03;;;;;;;16.52;11.77;;;;;;;6.30;82.16;96697.03;5071833;28;20044;-60
2021/05/02 07:03:28;;;;;;;16.75;10.95;;;;;;;6.48;82.63;96696.81;5068922;28;20072;-63
2021/05/02 07:05:54;;;;;;;18.13;11.68;;;;;;;6.52;83.46;96697.72;5070060;28;20047;-64
2021/05/02 07:08:20;;;;;;;17.02;10.30;;;;;;;6.57;82.54;96705.66;5066773;28;20498;-63
2021/05/02 07:10:45;;;;;;;16.75;10.82;;;;;;;6.68;82.87;96705.97;5068509;28;20244;-63
2021/05/02 07:13:11;;;;;;;19.15;11.45;;;;;;;6.67;82.51;96704.41;5057784;28;20040;-62
2021/05/02 07:15:38;;;;;;;16.63;11.10;;;;;;;6.79;81.19;96709.03;5044599;28;20040;-62
2021/05/02 07:18:03;;;;;;;15.93;11.27;;;;;;;6.69;81.87;96713.03;5058102;28;20402;-61
2021/05/02 07:20:29;;;;;;;19.20;11.80;;;;;;;6.67;82.13;96713.38;5045377;28;20044;-62
2021/05/02 07:22:54;;;;;;;16.25;11.35;;;;;;;6.57;82.39;96718.47;5068945;28;20462;-62
2021/05/02 07:25:23;;;;;;;19.95;13.00;;;;;;;6.45;85.05;96722.00;5063834;28;20063;-63
2021/05/02 07:27:49;;;;;;;18.23;12.30;;;;;;;6.44;85.45;96731.28;5042175;28;20076;-63
2021/05/02 07:30:16;;;;;;;18.48;11.18;;;;;;;6.67;82.59;96720.75;5055682;28;20132;-63
2021/05/02 07:32:41;;;;;;;18.05;10.98;;;;;;;6.58;82.79;96726.28;5062791;28;20037;-62
2021/05/02 07:35:07;;;;;;;14.88;10.50;;;;;;;6.58;83.56;96731.72;5039645;28;20040;-61
2021/05/02 07:37:33;;;;;;;18.38;11.88;;;;;;;6.74;83.07;96726.41;5062992;28;20044;-66
2021/05/02 07:39:59;;;;;;;17.02;11.15;;;;;;;6.64;83.40;96730.38;5052866;28;20048;-65
2021/05/02 07:42:24;;;;;;;19.83;12.48;;;;;;;6.48;85.53;96737.63;5075111;28;20864;-65
2021/05/02 07:44:52;;;;;;;16.77;11.02;;;;;;;6.55;86.37;96742.50;5062772;28;20511;-64
2021/05/02 07:47:19;;;;;;;20.38;13.07;;;;;;;6.37;85.47;96737.25;5059011;28;20036;-63
2021/05/02 07:49:44;;;;;;;21.85;13.73;;;;;;;6.25;87.05;96748.16;5062519;28;20135;-63
2021/05/02 07:52:09;;;;;;;19.52;13.15;;;;;;;6.53;86.30;96747.50;5056206;28;20135;-63
2021/05/02 07:54:35;;;;;;;20.23;12.93;;;;;;;6.87;85.42;96744.31;5060036;28;20078;-64
2021/05/02 07:57:00;;;;;;;20.30;13.80;;;;;;;7.39;82.95;96750.16;5063014;28;20040;-65
2021/05/02 07:59:26;;;;;;;21.90;13.02;;;;;;;7.54;82.18;96745.91;5056751;28;20079;-65
2021/05/02 08:01:51;;;;;;;20.15;11.68;;;;;;;7.68;78.93;96757.22;5061603;28;20043;-64
2021/05/02 08:04:16;;;;;;;20.63;12.63;;;;;;;7.40;80.56;96752.53;5055211;28;20037;-63
2021/05/02 08:06:42;;;;;;;20.40;14.15;;;;;;;7.02;81.94;96753.75;5062018;28;20053;-64
2021/05/02 08:09:07;;;;;;;14.57;10.25;;;;;;;7.24;78.10;96757.13;5056757;28;20039;-65
2021/05/02 08:11:33;;;;;;;17.27;10.80;;;;;;;7.27;78.82;96761.88;5071443;28;20063;-63
2021/05/02 08:13:58;;;;;;;17.83;11.90;;;;;;;7.35;80.23;96762.88;5082786;28;20040;-65
2021/05/02 08:16:24;;;;;;;18.27;11.45;;;;;;;7.26;81.60;96760.28;5076072;28;20043;-64
2021/05/02 08:18:49;;;;;;;16.50;11.60;;;;;;;7.35;82.12;96768.34;5081576;28;20036;-65
2021/05/02 08:21:14;;;;;;;18.42;12.10;;;;;;;7.77;81.32;96762.53;5063483;28;20040;-65
2021/05/02 08:23:40;;;;;;;21.42;13.52;;;;;;;7.80;81.12;96761.84;5061229;28;20588;-65
2021/05/02 08:26:06;;;;;;;17.30;10.95;;;;;;;8.12;77.44;96764.66;5056559;28;20498;-65
2021/05/02 08:28:31;;;;;;;16.00;11.73;;;;;;;8.27;77.31;96765.84;5060748;28;20124;-65
2021/05/02 08:30:57;;;;;;;17.15;11.45;;;;;;;8.38;76.50;96770.41;5061533;28;20064;-65
2021/05/02 08:33:22;;;;;;;16.08;10.27;;;;;;;8.29;75.01;96764.34;5055044;28;20095;-64
2021/05/02 08:35:49;;;;;;;16.50;10.70;;;;;;;8.41;75.21;96763.47;5062653;28;20052;-64
2021/05/02 08:38:15;;;;;;;15.52;10.95;;;;;;;8.73;75.58;96772.50;5058330;28;20049;-64
2021/05/02 08:40:41;;;;;;;15.18;10.70;;;;;;;8.94;74.22;96763.25;5062734;28;20048;-65
2021/05/02 08:43:07;;;;;;;16.92;10.73;;;;;;;8.98;75.42;96766.84;5063247;28;20044;-62
2021/05/02 08:45:34;;;;;;;13.60;8.73;;;;;;;8.27;76.18;96774.03;5062751;28;20041;-63
2021/05/02 08:48:00;;;;;;;12.52;8.95;;;;;;;8.65;75.55;96768.00;5060216;28;20037;-64
2021/05/02 08:50:25;;;;;;;13.02;8.20;;;;;;;8.99;71.36;96769.22;5058384;28;20051;-63
2021/05/02 08:52:50;;;;;;;10.95;7.40;;;;;;;8.85;74.37;96776.28;5070046;28;20534;-65
2021/05/02 08:55:16;;;;;;;12.18;7.53;;;;;;;8.75;73.02;96780.31;5056245;28;20047;-63
2021/05/02 08:57:41;;;;;;;11.38;8.18;;;;;;;8.35;76.02;96771.09;5061594;28;20064;-66
2021/05/02 09:00:08;;;;;;;13.10;8.70;;;;;;;8.60;76.79;96773.72;5055772;28;20498;-64
2021/05/02 09:02:35;;;;;;;14.27;9.52;;;;;;;8.24;77.40;96776.28;5060415;28;20106;-64
2021/05/02 09:05:04;;;;;;;13.65;9.10;;;;;;;8.84;75.05;96778.22;5061980;28;20060;-65
2021/05/02 09:07:43;;;;;;;11.13;8.47;;;;;;;9.39;70.65;96781.03;5060715;28;20036;-64
2021/05/02 09:10:14;;;;;;;11.70;8.13;;;;;;;9.38;69.83;96779.44;5036459;28;20044;-64
2021/05/02 09:12:41;;;;;;;10.73;7.55;;;;;;;9.48;68.75;96784.38;5042358;28;20036;-64
2021/05/02 09:15:20;;;;;;;11.75;7.70;;;;;;;8.99;69.23;96780.16;5055172;28;20043;-65
2021/05/02 09:17:58;;;;;;;11.20;7.82;;;;;;;8.98;73.01;96785.97;5061467;28;20094;-64
2021/05/02 09:20:44;;;;;;;11.85;7.55;;;;;;;8.82;72.50;96788.69;5056216;28;20145;-63
2021/05/02 09:23:10;;;;;;;14.23;8.50;;;;;;;8.47;72.13;96791.34;5034882;28;20052;-64
2021/05/02 09:25:53;;;;;;;15.27;9.30;;;;;;;8.21;74.69;96798.03;5040391;28;20045;-62
2021/05/02 09:28:50;;;;;;;16.23;10.98;;;;;;;8.18;78.40;96787.81;5015140;28;20041;-66
2021/05/02 09:31:26;;;;;;;14.50;9.57;;;;;;;8.20;74.25;96797.22;5036434;28;20094;-65
2021/05/02 09:33:52;;;;;;;14.57;10.10;;;;;;;8.63;74.92;96788.63;5043664;28;20052;-63
2021/05/02 09:36:20;;;;;;;12.38;8.40;;;;;;;8.79;73.05;96790.22;5053293;28;20087;-64
2021/05/02 09:38:47;;;;;;;12.40;8.57;;;;;;;8.84;72.65;96797.34;5060238;28;20056;-64
2021/05/02 09:41:14;;;;;;;13.20;8.57;;;;;;;8.79;72.33;96801.13;5067668;28;20082;-66
2021/05/02 09:43:40;;;;;;;12.48;8.45;;;;;;;8.61;73.26;96806.13;5064318;28;20127;-64
2021/05/02 09:46:24;;;;;;;12.65;8.35;;;;;;;8.93;72.55;96792.50;5062802;28;20079;-64
2021/05/02 09:49:19;;;;;;;11.27;7.63;;;;;;;8.97;71.18;96798.84;5060452;28;20194;-66
2021/05/02 09:51:53;;;;;;;14.85;7.90;;;;;;;8.97;71.20;96795.31;5061953;28;20043;-65
2021/05/02 09:54:26;;;;;;;11.32;7.72;;;;;;;9.09;69.97;96795.22;5056116;28;20060;-63
2021/05/02 09:56:54;;;;;;;12.30;8.57;;;;;;;9.09;70.19;96791.69;5060621;28;20036;-65
2021/05/02 09:59:26;;;;;;;11.07;6.95;;;;;;;9.16;68.85;96792.66;5055012;28;20490;-64
2021/05/02 10:02:09;;;;;;;11.48;7.32;;;;;;;8.95;68.67;96795.66;5060452;28;20517;-63
2021/05/02 10:04:37;;;;;;;11.27;7.90;;;;;;;9.51;69.68;96793.81;5062102;28;20380;-64
2021/05/02 10:07:09;;;;;;;11.63;7.93;;;;;;;9.99;67.43;96794.41;5064448;28;20522;-63
2021/05/02 10:09:34;;;;;;;10.40;7.82;;;;;;;9.93;66.19;96793.13;5064759;28;20422;-65
2021/05/02 10:12:00;;;;;;;7.72;5.72;;;;;;;9.75;64.93;96792.75;5072319;28;20037;-64
2021/05/02 10:14:27;;;;;;;9.32;6.20;;;;;;;9.82;65.58;96803.06;5064655;28;20421;-64
2021/05/02 10:16:52;;;;;;;7.28;5.40;;;;;;;9.92;64.59;96805.22;5066440;28;20170;-66
2021/05/02 10:19:18;;;;;;;8.73;5.97;;;;;;;10.28;62.76;96805.91;5041818;28;20495;-64
2021/05/02 10:21:44;;;;;;;6.78;5.00;;;;;;;10.23;63.41;96801.53;5069134;28;20486;-63
2021/05/02 10:24:12;;;;;;;6.57;4.85;;;;;;;10.61;61.83;96799.91;5060075;28;20040;-64
2021/05/02 10:26:38;;;;;;;7.63;5.15;;;;;;;10.61;58.77;96802.66;5067937;28;20061;-64
2021/05/02 10:29:03;;;;;;;9.20;6.22;;;;;;;10.66;60.77;96791.41;5068792;28;20483;-59
2021/05/02 10:31:30;;;;;;;9.15;5.10;;;;;;;10.77;59.54;96799.00;5071218;28;20240;-64
2021/05/02 10:33:56;;;;;;;6.68;4.60;;;;;;;10.57;60.69;96793.59;5073393;28;20094;-63
2021/05/02 10:36:23;;;;;;;8.55;4.55;;;;;;;11.13;58.98;96797.66;5076971;28;20398;-64
2021/05/02 10:38:54;;;;;;;5.80;4.10;;;;;;;11.20;62.03;96780.50;5077719;28;20040;-64
2021/05/02 10:41:25;;;;;;;6.35;3.75;;;;;;;11.56;56.46;96792.81;5057622;28;20044;-63
2021/05/02 10:43:52;;;;;;;6.88;3.95;;;;;;;11.66;57.50;96788.63;5062761;28;20438;-64
2021/05/02 10:46:46;;;;;;;7.05;4.45;;;;;;;12.02;55.56;96789.09;5058736;28;20052;-64
2021/05/02 10:49:18;;;;;;;7.53;4.25;;;;;;;11.55;56.35;96785.72;5057700;28;20040;-63
2021/05/02 10:51:44;;;;;;;6.45;4.10;;;;;;;11.44;57.41;96779.31;5043347;28;20063;-64
2021/05/02 10:54:15;;;;;;;9.02;3.97;;;;;;;11.86;56.26;96784.56;5057292;28;20036;-63
2021/05/02 10:56:47;;;;;;;5.25;3.55;;;;;;;11.81;57.22;96787.66;5063353;28;20552;-63
2021/05/02 10:59:14;;;;;;;6.13;3.60;;;;;;;11.72;54.95;96789.06;5057905;28;20394;-63
2021/05/02 11:01:39;;;;;;;5.28;3.42;;;;;;;11.97;54.86;96786.69;5061879;28;20068;-65
2021/05/02 11:04:05;;;;;;;4.90;3.67;;;;;;;11.95;53.99;96787.06;5040305;28;20094;-61
2021/05/02 11:06:37;;;;;;;4.57;3.33;;;;;;;11.92;53.38;96807.03;5063779;28;20040;-67
2021/05/02 11:09:08;;;;;;;6.03;4.05;;;;;;;11.16;55.10;96794.16;5064053;28;20037;-62
2021/05/02 11:11:34;;;;;;;4.72;3.50;;;;;;;11.30;56.26;96788.09;5060698;28;20044;-63
2021/05/02 11:16:46;;;;;;;3.60;2.55;;;;;;;11.13;58.74;96802.31;5061001;28;20063;-63
2021/05/02 11:19:34;;;;;;;4.72;3.30;;;;;;;10.54;60.38;96793.53;5060945;28;20055;-64
2021/05/02 11:22:04;;;;;;;5.25;3.20;;;;;;;10.85;60.74;96796.00;5055805;28;20044;-63
2021/05/02 11:24:39;;;;;;;8.77;4.63;;;;;;;11.38;56.33;96791.75;5062656;28;20108;-62
2021/05/02 11:32:26;;;;;;;7.28;4.03;;;;;;;11.92;55.69;96790.56;5057430;28;20139;-63
2021/05/02 11:35:00;;;;;;;6.32;3.80;;;;;;;11.17;58.92;96789.50;5064468;28;20122;-63
2021/05/02 11:37:51;;;;;;;6.50;4.15;;;;;;;11.19;57.96;96790.69;5056641;28;20558;-62
2021/05/02 11:40:35;;;;;;;6.93;4.15;;;;;;;10.66;58.65;96796.06;5064240;28;20071;-63
2021/05/02 11:43:02;;;;;;;6.35;4.47;;;;;;;11.46;55.77;96796.97;5046159;28;20040;-64
2021/05/02 11:45:39;;;;;;;6.20;4.43;;;;;;;11.34;56.29;96796.38;5061838;28;20187;-63
2021/05/02 11:48:06;;;;;;;10.25;4.40;;;;;;;11.16;56.14;96794.16;5031475;28;20040;-65
2021/05/02 11:50:42;;;;;;;6.97;4.85;;;;;;;11.11;56.79;96789.00;5062541;28;20128;-65